Time;durP1;ratioP1;P1;durP2;ratioP2;P2;SDS_P1;SDS_P2;PMS_P1;PMS_P2;Temp;Humidity;BMP_temperature;BMP_pressure;BME280_temperature;BME280_humidity;BME280_pressure;Samples;Min_cycle;Max_cycle;Signal;HPM_P1;HPM_P2
2023/04/01 00:01:00;;;;;;;12.57;9.40;;;9.90;99.90;;;;;;5066646;28;20059;-79
2023/04/01 00:03:27;;;;;;;10.85;7.75;;;10.00;99.90;;;;;;5065427;28;20041;-79
2023/04/01 00:05:57;;;;;;;11.85;8.30;;;10.10;99.90;;;;;;5064994;28;20136;-79
2023/04/01 00:08:26;;;;;;;14.30;8.25;;;10.00;99.90;;;;;;5065425;28;20037;-79
2023/04/01 00:10:56;;;;;;;9.55;8.13;;;9.90;99.90;;;;;;5067952;28;20429;-79
2023/04/01 00:13:23;;;;;;;11.73;8.38;;;10.00;99.90;;;;;;5059729;28;20479;-80
2023/04/01 00:15:52;;;;;;;13.30;9.10;;;9.90;99.90;;;;;;5066432;28;20075;-79
2023/04/01 00:18:18;;;;;;;11.30;8.48;;;9.90;99.90;;;;;;5058649;28;20715;-79
2023/04/01 00:20:49;;;;;;;13.52;8.85;;;9.90;99.90;;;;;;5064341;28;20492;-79
2023/04/01 00:23:16;;;;;;;14.65;8.85;;;9.90;99.90;;;;;;5067683;28;20054;-79
2023/04/01 00:25:42;;;;;;;12.88;9.07;;;9.90;99.90;;;;;;5065311;28;20040;-79
2023/04/01 00:28:07;;;;;;;11.32;8.88;;;9.90;99.90;;;;;;5060668;28;20398;-79
2023/04/01 00:30:35;;;;;;;12.23;9.23;;;9.90;99.90;;;;;;5065159;28;20052;-79
2023/04/01 00:33:01;;;;;;;12.40;9.45;;;9.90;99.90;;;;;;5065249;28;20040;-76
2023/04/01 00:35:26;;;;;;;17.35;10.13;;;9.80;99.90;;;;;;5064959;28;20079;-78
2023/04/01 00:37:52;;;;;;;13.05;9.60;;;9.90;99.90;;;;;;5065939;28;20041;-79
2023/04/01 00:40:31;;;;;;;15.40;9.63;;;9.90;99.90;;;;;;5033349;28;20173;-79
2023/04/01 00:42:57;;;;;;;14.73;10.48;;;9.80;99.90;;;;;;5063548;28;20048;-78
2023/04/01 00:45:34;;;;;;;14.25;10.60;;;9.90;99.90;;;;;;5064301;28;20036;-79
2023/04/01 00:48:05;;;;;;;13.38;10.05;;;9.90;99.90;;;;;;5065741;28;20143;-79
2023/04/01 00:50:33;;;;;;;13.82;10.23;;;9.80;99.90;;;;;;5067076;28;20134;-79
2023/04/01 00:53:00;;;;;;;13.30;10.23;;;9.80;99.90;;;;;;5066656;28;20044;-78
2023/04/01 00:55:28;;;;;;;14.15;10.45;;;9.80;99.90;;;;;;5066912;28;20037;-78
2023/04/01 00:57:56;;;;;;;15.40;11.43;;;9.80;99.90;;;;;;5067353;28;20066;-77
2023/04/01 01:00:22;;;;;;;15.38;10.50;;;9.70;99.90;;;;;;5062985;28;20051;-77
2023/04/01 01:02:50;;;;;;;13.23;10.63;;;9.80;99.90;;;;;;5061491;28;20044;-79
2023/04/01 01:05:17;;;;;;;18.02;10.55;;;9.70;99.90;;;;;;5060719;28;20148;-78
2023/04/01 01:07:57;;;;;;;15.85;10.43;;;9.80;99.90;;;;;;5065828;28;20098;-78
2023/04/01 01:10:38;;;;;;;14.10;10.13;;;9.80;99.90;;;;;;5064441;28;20045;-77
2023/04/01 01:13:30;;;;;;;16.13;10.93;;;9.80;99.90;;;;;;5064159;28;20037;-77
2023/04/01 01:16:12;;;;;;;14.75;10.40;;;9.80;99.90;;;;;;5062365;28;20070;-79
2023/04/01 01:18:46;;;;;;;14.35;10.18;;;9.80;99.90;;;;;;5063025;28;20051;-78
2023/04/01 01:21:46;;;;;;;21.98;10.65;;;9.80;99.90;;;;;;5049962;28;20044;-77
2023/04/01 01:24:30;;;;;;;16.50;10.80;;;9.70;99.90;;;;;;5061673;28;20079;-79
2023/04/01 01:27:22;;;;;;;19.08;10.30;;;9.80;99.90;;;;;;5067152;28;20455;-78
2023/04/01 01:30:13;;;;;;;13.50;10.02;;;9.70;99.90;;;;;;5058801;28;20124;-79
2023/04/01 01:32:54;;;;;;;13.20;10.13;;;9.70;99.90;;;;;;5065609;28;20297;-79
2023/04/01 01:35:37;;;;;;;16.42;10.70;;;9.80;99.90;;;;;;5063876;28;20044;-79
2023/04/01 01:38:05;;;;;;;;;;;9.70;99.90;;;;;;5065909;28;20134;-79
2023/04/01 01:40:33;;;;;;;14.20;10.48;;;9.70;99.90;;;;;;5063706;28;19973;-79
2023/04/01 01:43:06;;;;;;;15.18;9.98;;;9.80;99.90;;;;;;5067692;28;20043;-77
2023/04/01 01:45:35;;;;;;;16.17;11.27;;;9.80;99.90;;;;;;5064088;28;20060;-79
2023/04/01 01:48:04;;;;;;;13.57;10.13;;;9.70;99.90;;;;;;5065064;28;20293;-78
2023/04/01 01:50:31;;;;;;;19.02;10.88;;;9.70;99.90;;;;;;5065753;28;20603;-79
2023/04/01 01:53:02;;;;;;;14.80;10.93;;;9.80;99.90;;;;;;5067666;28;20053;-79
2023/04/01 01:55:34;;;;;;;17.48;11.25;;;9.80;99.90;;;;;;5058780;28;20054;-79
2023/04/01 01:58:25;;;;;;;14.32;10.48;;;9.80;99.90;;;;;;5060549;28;20052;-78
2023/04/01 02:00:56;;;;;;;14.23;10.98;;;9.80;99.90;;;;;;5047649;28;20048;-79
2023/04/01 02:03:26;;;;;;;17.08;11.18;;;9.80;99.90;;;;;;5063404;28;20447;-79
2023/04/01 02:05:58;;;;;;;13.63;10.50;;;9.80;99.90;;;;;;5065171;28;20044;-77
2023/04/01 02:08:32;;;;;;;15.40;10.18;;;9.80;99.90;;;;;;5045596;28;20040;-79
2023/04/01 02:11:05;;;;;;;14.73;10.18;;;9.90;99.90;;;;;;5064737;28;20566;-79
2023/04/01 02:13:45;;;;;;;15.63;11.30;;;9.90;99.90;;;;;;5064607;28;20094;-78
2023/04/01 02:16:20;;;;;;;15.45;11.07;;;9.80;99.90;;;;;;5060421;28;20048;-78
2023/04/01 02:18:54;;;;;;;15.40;10.90;;;9.80;99.90;;;;;;5057508;28;20056;-78
2023/04/01 02:21:23;;;;;;;16.23;11.23;;;9.90;99.90;;;;;;5064136;28;20052;-79
2023/04/01 02:23:51;;;;;;;15.13;10.10;;;9.90;99.90;;;;;;5061974;28;20052;-78
2023/04/01 02:26:18;;;;;;;14.20;10.45;;;9.80;99.90;;;;;;5064253;28;20147;-78
2023/04/01 02:28:46;;;;;;;15.25;11.20;;;9.90;99.90;;;;;;5067262;28;20049;-79
2023/04/01 02:31:14;;;;;;;15.68;11.02;;;9.80;99.90;;;;;;5067060;28;20086;-79
2023/04/01 02:33:40;;;;;;;18.98;12.10;;;9.90;99.90;;;;;;5044426;28;20044;-78
2023/04/01 02:36:11;;;;;;;16.08;11.05;;;9.80;99.90;;;;;;5061224;28;20480;-78
2023/04/01 02:38:38;;;;;;;13.88;10.10;;;9.90;99.90;;;;;;5061728;28;20040;-78
2023/04/01 02:41:05;;;;;;;14.23;10.70;;;9.90;99.90;;;;;;5061786;28;20040;-77
2023/04/01 02:43:30;;;;;;;17.80;11.07;;;9.90;99.90;;;;;;5066111;28;20072;-77
2023/04/01 02:45:56;;;;;;;14.82;11.15;;;9.90;99.90;;;;;;5063039;28;20534;-79
2023/04/01 02:48:22;;;;;;;16.38;11.70;;;9.90;99.90;;;;;;5064705;28;20130;-77
2023/04/01 02:50:47;;;;;;;21.40;11.20;;;9.80;99.90;;;;;;5061305;28;20052;-78
2023/04/01 02:53:15;;;;;;;16.90;11.98;;;9.90;99.90;;;;;;5044977;28;20044;-77
2023/04/01 02:55:41;;;;;;;20.52;12.45;;;9.90;99.90;;;;;;5065379;28;20041;-76
2023/04/01 02:58:07;;;;;;;15.50;10.77;;;9.90;99.90;;;;;;5061735;28;20044;-78
2023/04/01 03:00:33;;;;;;;15.98;11.60;;;9.90;99.90;;;;;;5054648;28;20283;-78
2023/04/01 03:02:59;;;;;;;17.20;12.10;;;9.90;99.90;;;;;;5063969;28;20064;-78
2023/04/01 03:05:25;;;;;;;18.55;12.25;;;9.90;99.90;;;;;;5060888;28;20041;-78
2023/04/01 03:07:51;;;;;;;15.23;11.40;;;9.80;99.90;;;;;;5064291;28;20045;-78
2023/04/01 03:10:17;;;;;;;17.88;11.88;;;10.00;99.90;;;;;;5065120;28;20047;-78
2023/04/01 03:12:43;;;;;;;16.73;11.00;;;9.90;99.90;;;;;;5069023;28;20438;-77
2023/04/01 03:15:14;;;;;;;17.83;12.10;;;9.90;99.90;;;;;;5064908;28;20437;-78
2023/04/01 03:17:40;;;;;;;15.77;11.50;;;9.90;99.90;;;;;;5067299;28;20409;-79
2023/04/01 03:20:08;;;;;;;17.90;11.30;;;9.90;99.90;;;;;;5064139;28;20048;-79
2023/04/01 03:22:43;;;;;;;17.60;11.75;;;9.90;99.90;;;;;;5063272;28;20048;-77
2023/04/01 03:25:10;;;;;;;18.95;12.23;;;9.90;99.90;;;;;;5064174;28;20049;-79
2023/04/01 03:27:36;;;;;;;18.17;11.88;;;9.90;99.90;;;;;;5069279;28;20032;-77
2023/04/01 03:30:04;;;;;;;16.98;11.80;;;9.80;99.90;;;;;;5068282;28;20059;-76
2023/04/01 03:32:30;;;;;;;16.38;11.35;;;9.90;99.90;;;;;;5048698;28;20045;-78
2023/04/01 03:34:56;;;;;;;15.57;11.27;;;9.80;99.90;;;;;;5065824;28;20082;-80
2023/04/01 03:37:22;;;;;;;16.75;12.15;;;9.80;99.90;;;;;;5063874;28;20040;-78
2023/04/01 03:39:48;;;;;;;15.70;11.63;;;9.80;99.90;;;;;;5067334;28;20037;-79
2023/04/01 03:42:13;;;;;;;18.55;11.30;;;9.80;99.90;;;;;;5062300;28;20047;-82
2023/04/01 03:44:39;;;;;;;19.55;12.15;;;9.80;99.90;;;;;;5067530;28;20050;-79
2023/04/01 03:47:05;;;;;;;17.73;11.80;;;9.90;99.90;;;;;;5066603;28;20041;-76
2023/04/01 03:49:31;;;;;;;19.63;13.15;;;9.80;99.90;;;;;;5070179;28;20570;-78
2023/04/01 03:51:58;;;;;;;18.10;12.07;;;9.80;99.90;;;;;;5064963;28;20119;-79
2023/04/01 03:54:26;;;;;;;15.73;11.55;;;9.80;99.90;;;;;;5051075;28;20040;-76
2023/04/01 03:56:52;;;;;;;18.77;13.05;;;9.80;99.90;;;;;;5069311;28;20048;-77
2023/04/01 03:59:18;;;;;;;16.60;12.65;;;9.80;99.90;;;;;;5069394;28;20052;-78
2023/04/01 04:01:43;;;;;;;20.35;12.57;;;9.90;99.90;;;;;;5069117;28;20040;-78
2023/04/01 04:04:12;;;;;;;18.98;12.40;;;9.80;99.90;;;;;;5067274;28;20419;-77
2023/04/01 04:06:38;;;;;;;17.80;12.63;;;9.80;99.90;;;;;;5068504;28;20044;-79
2023/04/01 04:09:04;;;;;;;17.30;13.07;;;9.80;99.90;;;;;;5069954;28;20047;-77
2023/04/01 04:11:31;;;;;;;18.65;12.32;;;9.80;99.90;;;;;;5065709;28;20399;-77
2023/04/01 04:13:57;;;;;;;19.90;12.82;;;9.80;99.90;;;;;;5063572;28;20036;-78
2023/04/01 04:16:22;;;;;;;17.65;12.40;;;9.80;99.90;;;;;;5068677;28;20086;-78
2023/04/01 04:18:48;;;;;;;18.88;12.35;;;9.80;99.90;;;;;;5066492;28;20055;-77
2023/04/01 04:21:15;;;;;;;19.38;12.95;;;9.90;99.90;;;;;;5061298;28;20059;-76
2023/04/01 04:23:41;;;;;;;18.13;12.57;;;9.80;99.90;;;;;;5070056;28;20092;-77
2023/04/01 04:26:09;;;;;;;20.00;13.00;;;9.90;99.90;;;;;;5067005;28;20044;-77
2023/04/01 04:28:34;;;;;;;20.95;12.57;;;9.80;99.90;;;;;;5067736;28;20315;-78
2023/04/01 04:31:01;;;;;;;23.13;12.88;;;9.80;99.90;;;;;;5065227;28;20066;-78
2023/04/01 04:33:27;;;;;;;22.10;13.75;;;9.90;99.90;;;;;;5064289;28;20040;-79
2023/04/01 04:35:55;;;;;;;21.35;13.57;;;9.80;99.90;;;;;;5046269;28;20043;-79
2023/04/01 04:38:21;;;;;;;24.08;13.57;;;9.80;99.90;;;;;;5051209;28;20500;-78
2023/04/01 04:40:47;;;;;;;23.13;13.85;;;9.80;99.90;;;;;;5066196;28;20131;-78
2023/04/01 04:43:14;;;;;;;20.50;13.70;;;9.80;99.90;;;;;;5064585;28;20097;-78
2023/04/01 04:45:41;;;;;;;20.90;14.38;;;9.90;99.90;;;;;;5067546;28;20043;-77
2023/04/01 04:48:18;;;;;;;21.02;13.35;;;9.90;99.90;;;;;;5062917;28;20047;-78
2023/04/01 04:50:44;;;;;;;22.55;13.80;;;9.80;99.90;;;;;;5064782;28;20040;-78
2023/04/01 04:53:11;;;;;;;21.70;14.93;;;9.80;99.90;;;;;;5064344;28;20577;-78
2023/04/01 04:55:37;;;;;;;22.20;14.55;;;9.80;99.90;;;;;;5064408;28;20295;-78
2023/04/01 04:58:03;;;;;;;19.85;13.07;;;9.80;99.90;;;;;;5065735;28;20340;-77
2023/04/01 05:00:28;;;;;;;22.40;15.13;;;9.80;99.90;;;;;;5063041;28;20045;-78
2023/04/01 05:02:57;;;;;;;24.80;14.77;;;9.80;99.90;;;;;;5068469;28;20059;-79
2023/04/01 05:05:23;;;;;;;24.55;15.07;;;9.90;99.90;;;;;;5065676;28;20033;-78
2023/04/01 05:07:48;;;;;;;24.33;14.60;;;9.80;99.90;;;;;;5065783;28;20049;-78
2023/04/01 05:10:14;;;;;;;25.65;15.73;;;9.90;99.90;;;;;;5061423;28;20048;-79
2023/04/01 05:12:40;;;;;;;25.00;15.00;;;9.80;99.90;;;;;;5060122;28;20064;-79
2023/04/01 05:15:06;;;;;;;25.00;15.88;;;9.90;99.90;;;;;;5068571;28;20047;-79
2023/04/01 05:17:32;;;;;;;24.80;15.00;;;9.90;99.90;;;;;;5068633;28;20036;-79
2023/04/01 05:19:58;;;;;;;21.85;15.18;;;9.80;99.90;;;;;;5064683;28;20048;-78
2023/04/01 05:22:27;;;;;;;23.98;15.80;;;9.90;99.90;;;;;;5061751;28;20048;-78
2023/04/01 05:24:52;;;;;;;26.48;15.90;;;9.90;99.90;;;;;;5062050;28;20461;-78
2023/04/01 05:27:18;;;;;;;27.98;16.83;;;9.80;99.90;;;;;;5064137;28;20052;-78
2023/04/01 05:29:44;;;;;;;25.13;16.42;;;9.90;99.90;;;;;;5047039;28;20052;-78
2023/04/01 05:32:09;;;;;;;29.25;17.52;;;9.80;99.90;;;;;;5062640;28;20375;-79
2023/04/01 05:34:35;;;;;;;26.67;17.15;;;9.90;99.90;;;;;;5063405;28;20484;-79
2023/04/01 05:37:01;;;;;;;26.33;16.63;;;9.90;99.90;;;;;;5063387;28;20051;-77
2023/04/01 05:39:27;;;;;;;25.90;16.27;;;9.90;99.90;;;;;;5050576;28;20166;-79
2023/04/01 05:41:52;;;;;;;31.00;18.50;;;10.00;99.90;;;;;;5065907;28;20445;-79
2023/04/01 05:44:21;;;;;;;27.05;17.58;;;10.00;99.90;;;;;;5064727;28;20040;-78
2023/04/01 05:46:46;;;;;;;29.95;17.92;;;9.90;99.90;;;;;;5065775;28;20159;-79
2023/04/01 05:49:12;;;;;;;28.95;17.13;;;9.90;99.90;;;;;;5067197;28;20499;-78
2023/04/01 05:51:38;;;;;;;27.77;17.90;;;9.90;99.90;;;;;;5066280;28;20109;-79
2023/04/01 05:54:07;;;;;;;24.95;17.10;;;10.00;99.90;;;;;;5067970;28;20048;-79
2023/04/01 05:56:35;;;;;;;31.40;18.65;;;10.00;99.90;;;;;;5041831;28;20052;-79
2023/04/01 05:59:01;;;;;;;24.90;16.50;;;9.90;99.90;;;;;;5044115;28;20043;-76
2023/04/01 06:01:37;;;;;;;28.48;17.45;;;9.90;99.90;;;;;;5073281;28;20032;-80
2023/04/01 06:04:04;;;;;;;26.88;17.60;;;9.90;99.90;;;;;;5064424;28;20048;-78
2023/04/01 06:06:32;;;;;;;28.98;17.77;;;10.00;99.90;;;;;;5055483;28;20381;-80
2023/04/01 06:09:12;;;;;;;26.45;17.70;;;9.90;99.90;;;;;;5062500;28;20535;-81
2023/04/01 06:12:06;;;;;;;24.98;16.98;;;9.90;99.90;;;;;;5062638;28;20183;-77
2023/04/01 06:14:51;;;;;;;27.60;16.80;;;10.00;99.90;;;;;;5062679;28;20153;-79
2023/04/01 06:17:36;;;;;;;25.27;16.58;;;10.00;99.90;;;;;;5046463;28;20396;-80
2023/04/01 06:20:13;;;;;;;26.42;15.38;;;9.90;99.90;;;;;;5060930;28;20399;-77
2023/04/01 06:22:51;;;;;;;23.48;16.60;;;9.90;99.90;;;;;;5056202;28;20090;-77
2023/04/01 06:25:48;;;;;;;23.63;15.38;;;9.90;99.90;;;;;;5054317;28;20048;-77
2023/04/01 06:28:33;;;;;;;25.90;16.30;;;9.90;99.90;;;;;;5058332;28;20610;-78
2023/04/01 06:31:33;;;;;;;25.48;16.27;;;9.90;99.90;;;;;;5060516;28;20063;-76
2023/04/01 06:34:50;;;;;;;23.55;15.52;;;9.90;99.90;;;;;;5055525;28;20280;-74
2023/04/01 06:37:46;;;;;;;26.70;16.50;;;10.00;99.90;;;;;;4980434;28;20108;-74
2023/04/01 06:40:41;;;;;;;26.42;16.38;;;10.00;99.90;;;;;;5065897;28;20056;-74
2023/04/01 06:43:26;;;;;;;24.10;15.55;;;10.00;99.90;;;;;;5052216;28;20033;-74
2023/04/01 06:46:04;;;;;;;21.90;15.25;;;10.00;99.90;;;;;;5070502;28;20144;-74
2023/04/01 06:48:37;;;;;;;20.83;14.57;;;10.00;99.90;;;;;;5054476;28;20048;-74
2023/04/01 06:51:25;;;;;;;21.95;14.45;;;10.00;99.90;;;;;;5071008;28;20116;-75
2023/04/01 06:54:10;;;;;;;23.75;15.45;;;10.00;99.90;;;;;;5068955;28;20052;-75
2023/04/01 06:56:39;;;;;;;20.75;14.32;;;10.00;99.90;;;;;;5069596;28;20048;-73
2023/04/01 06:59:22;;;;;;;21.05;14.27;;;10.10;99.90;;;;;;5053307;28;20032;-71
2023/04/01 07:01:54;;;;;;;19.23;12.73;;;10.10;99.90;;;;;;5069715;28;20196;-71
2023/04/01 07:04:35;;;;;;;19.35;12.57;;;10.10;99.90;;;;;;5067927;28;20040;-70
2023/04/01 07:07:14;;;;;;;17.98;12.48;;;10.10;99.90;;;;;;5064582;28;20216;-71
2023/04/01 07:09:45;;;;;;;21.90;13.90;;;10.20;99.90;;;;;;5066243;28;20049;-70
2023/04/01 07:12:20;;;;;;;19.35;13.38;;;10.20;99.90;;;;;;5054978;28;20041;-70
2023/04/01 07:14:48;;;;;;;21.02;13.27;;;10.10;99.90;;;;;;5061717;28;20040;-71
2023/04/01 07:17:26;;;;;;;21.58;14.05;;;10.20;99.90;;;;;;5064926;28;20115;-72
2023/04/01 07:20:15;;;;;;;22.35;14.55;;;10.20;99.90;;;;;;5065570;28;20110;-70
2023/04/01 07:22:50;;;;;;;24.42;14.52;;;10.20;99.90;;;;;;5070110;28;20075;-70
2023/04/01 07:25:25;;;;;;;25.45;14.27;;;10.20;99.90;;;;;;5066375;28;20039;-72
2023/04/01 07:28:01;;;;;;;21.10;14.65;;;10.10;99.90;;;;;;5049316;28;20040;-70
2023/04/01 07:30:48;;;;;;;21.75;14.73;;;10.10;99.90;;;;;;5064523;28;20491;-70
2023/04/01 07:33:31;;;;;;;25.42;15.38;;;10.20;99.90;;;;;;5070336;28;20511;-70
2023/04/01 07:36:08;;;;;;;24.67;15.63;;;10.30;99.90;;;;;;5068211;28;21387;-69
2023/04/01 07:38:42;;;;;;;31.08;15.60;;;10.20;99.90;;;;;;5065691;28;20032;-69
2023/04/01 07:41:26;;;;;;;23.10;16.73;;;10.20;99.90;;;;;;5053777;28;20071;-68
2023/04/01 07:44:13;;;;;;;24.17;16.58;;;10.30;99.90;;;;;;5064578;28;20049;-69
2023/04/01 07:46:58;;;;;;;23.67;15.48;;;10.30;99.90;;;;;;5051240;28;20045;-69
2023/04/01 07:49:57;;;;;;;23.88;17.02;;;10.40;99.90;;;;;;5072049;28;20154;-70
2023/04/01 07:52:58;;;;;;;22.88;15.65;;;10.40;99.90;;;;;;5073184;28;20044;-68
2023/04/01 07:55:33;;;;;;;23.25;16.15;;;10.40;99.90;;;;;;5030552;28;20055;-68
2023/04/01 07:58:10;;;;;;;23.02;15.27;;;10.40;99.90;;;;;;5060750;28;20044;-68
2023/04/01 08:00:48;;;;;;;23.25;15.65;;;10.40;99.90;;;;;;5068455;28;20488;-69
2023/04/01 08:03:50;;;;;;;23.73;16.05;;;10.50;99.90;;;;;;5072793;28;20916;-69
2023/04/01 08:06:44;;;;;;;23.77;15.65;;;10.60;99.90;;;;;;4993633;28;20667;-67
2023/04/01 08:09:22;;;;;;;27.98;16.67;;;10.50;99.90;;;;;;5061244;28;20064;-68
2023/04/01 08:11:51;;;;;;;25.15;16.30;;;10.50;99.90;;;;;;5063829;28;20110;-73
2023/04/01 08:14:36;;;;;;;36.30;17.95;;;10.60;99.90;;;;;;5067486;28;20044;-73
2023/04/01 08:17:12;;;;;;;36.15;19.05;;;10.70;99.90;;;;;;5068585;28;20040;-73
2023/04/01 08:19:41;;;;;;;36.88;18.95;;;10.70;99.90;;;;;;5063988;28;20040;-73
2023/04/01 08:22:17;;;;;;;32.72;17.20;;;10.80;99.90;;;;;;5067795;28;20079;-75
2023/04/01 08:24:45;;;;;;;27.83;16.15;;;10.80;99.90;;;;;;5066820;28;20121;-73
2023/04/01 08:27:41;;;;;;;27.45;16.15;;;10.80;99.90;;;;;;5066356;28;22184;-73
2023/04/01 08:30:26;;;;;;;26.60;14.63;;;10.80;99.90;;;;;;5069692;28;20036;-74
2023/04/01 08:33:14;;;;;;;19.05;13.68;;;10.70;99.90;;;;;;5067243;28;20041;-73
2023/04/01 08:36:13;;;;;;;20.00;13.32;;;10.80;99.90;;;;;;5069856;28;20044;-72
2023/04/01 08:38:59;;;;;;;19.02;11.80;;;10.80;99.90;;;;;;5050281;28;20045;-73
2023/04/01 08:41:49;;;;;;;21.20;11.57;;;10.80;99.90;;;;;;5068600;28;20044;-74
2023/04/01 08:44:42;;;;;;;23.40;11.65;;;10.90;99.90;;;;;;5071387;28;20055;-72
2023/04/01 08:47:20;;;;;;;20.13;10.75;;;11.00;99.90;;;;;;5067428;28;20045;-73
2023/04/01 08:50:15;;;;;;;15.90;8.88;;;11.10;99.90;;;;;;5066149;28;20045;-73
2023/04/01 08:53:03;;;;;;;17.17;7.45;;;11.10;99.90;;;;;;5060610;28;20048;-72
2023/04/01 08:55:58;;;;;;;14.07;7.50;;;11.20;99.90;;;;;;5065063;28;20044;-73
2023/04/01 08:58:51;;;;;;;12.23;6.38;;;11.10;99.90;;;;;;5041037;28;20094;-73
2023/04/01 09:01:36;;;;;;;10.45;6.10;;;11.20;99.90;;;;;;5070519;28;20049;-73
2023/04/01 09:04:22;;;;;;;11.88;6.72;;;11.20;99.90;;;;;;5065157;28;20048;-73
2023/04/01 09:06:57;;;;;;;12.10;6.93;;;11.30;99.90;;;;;;5068776;28;20059;-73
2023/04/01 09:09:29;;;;;;;12.20;6.38;;;11.30;99.90;;;;;;5073315;28;20132;-74
2023/04/01 09:12:17;;;;;;;11.82;6.10;;;11.40;99.90;;;;;;5065277;28;20051;-72
2023/04/01 09:14:53;;;;;;;12.70;6.68;;;11.50;99.90;;;;;;5060315;28;20071;-72
2023/04/01 09:18:01;;;;;;;9.70;5.75;;;11.70;99.90;;;;;;5062823;28;20048;-72
2023/04/01 09:20:32;;;;;;;12.70;6.10;;;11.90;99.90;;;;;;5076419;28;21162;-70
2023/04/01 09:23:29;;;;;;;9.60;6.15;;;12.10;99.90;;;;;;5062808;28;20044;-70
2023/04/01 09:26:12;;;;;;;8.82;5.85;;;12.20;99.90;;;;;;5058387;28;20102;-69
2023/04/01 09:29:17;;;;;;;10.20;6.45;;;12.20;99.90;;;;;;5058788;28;20051;-68
2023/04/01 09:31:47;;;;;;;9.30;6.28;;;12.10;99.90;;;;;;5062663;28;20041;-70
2023/04/01 09:34:16;;;;;;;10.02;5.70;;;12.00;99.90;;;;;;5064817;28;20102;-71
2023/04/01 09:37:10;;;;;;;11.77;5.20;;;12.00;99.90;;;;;;5063905;28;20056;-69
2023/04/01 09:39:38;;;;;;;9.00;5.60;;;11.90;99.90;;;;;;5061348;28;20051;-69
2023/04/01 09:42:20;;;;;;;9.10;4.82;;;11.80;99.90;;;;;;5064754;28;20040;-71
2023/04/01 09:44:59;;;;;;;7.22;4.50;;;11.90;99.90;;;;;;5070065;28;20091;-70
2023/04/01 09:47:43;;;;;;;6.18;2.70;;;11.90;99.90;;;;;;5063949;28;20044;-70
2023/04/01 09:50:25;;;;;;;5.90;3.20;;;11.80;99.90;;;;;;5060809;28;20056;-70
2023/04/01 09:53:29;;;;;;;6.32;2.97;;;11.70;99.90;;;;;;5062183;28;20048;-70
2023/04/01 09:56:04;;;;;;;8.00;2.90;;;11.70;99.90;;;;;;5074623;28;20063;-71
2023/04/01 09:59:13;;;;;;;7.90;3.42;;;11.60;99.90;;;;;;5064112;28;20112;-70
2023/04/01 10:01:45;;;;;;;6.45;3.92;;;11.60;99.90;;;;;;5063168;28;20105;-69
2023/04/01 10:04:43;;;;;;;9.75;4.45;;;11.50;99.90;;;;;;5060605;28;20037;-68
2023/04/01 10:07:30;;;;;;;10.30;4.18;;;11.40;99.90;;;;;;5018681;28;20066;-69
2023/04/01 10:10:18;;;;;;;8.55;4.53;;;11.40;99.90;;;;;;5058559;28;20079;-69
2023/04/01 10:12:59;;;;;;;8.32;4.05;;;11.40;99.90;;;;;;5057561;28;20055;-68
2023/04/01 10:15:40;;;;;;;8.63;4.53;;;11.40;99.90;;;;;;5064750;28;20139;-67
2023/04/01 10:18:36;;;;;;;8.73;4.63;;;11.40;99.90;;;;;;5059437;28;20396;-68
2023/04/01 10:21:20;;;;;;;9.82;4.30;;;11.40;99.90;;;;;;5059020;28;20040;-69
2023/04/01 10:24:22;;;;;;;9.23;4.68;;;11.40;99.90;;;;;;5064398;28;20423;-69
2023/04/01 10:27:08;;;;;;;6.60;3.63;;;11.50;99.90;;;;;;5066205;28;20132;-67
2023/04/01 10:30:06;;;;;;;10.27;3.45;;;11.50;99.90;;;;;;5065754;28;20075;-68
2023/04/01 10:32:59;;;;;;;7.43;3.80;;;11.50;99.90;;;;;;5048882;28;20055;-68
2023/04/01 10:35:56;;;;;;;6.57;3.78;;;11.40;99.90;;;;;;5063387;28;20148;-68
2023/04/01 10:38:47;;;;;;;7.95;3.92;;;11.30;99.90;;;;;;5060502;28;20052;-68
2023/04/01 10:41:28;;;;;;;11.20;4.15;;;11.30;99.90;;;;;;5065050;28;20106;-68
2023/04/01 10:44:24;;;;;;;7.93;3.90;;;11.20;99.90;;;;;;5067542;28;20488;-69
2023/04/01 10:47:03;;;;;;;10.80;4.20;;;11.20;99.90;;;;;;5067829;28;20123;-66
2023/04/01 10:49:50;;;;;;;8.43;3.55;;;11.20;99.90;;;;;;5063451;28;20048;-69
2023/04/01 10:52:47;;;;;;;5.28;3.33;;;11.20;99.90;;;;;;5059082;28;21966;-68
2023/04/01 10:55:31;;;;;;;6.85;3.30;;;11.20;99.90;;;;;;5073514;28;20055;-69
2023/04/01 10:58:35;;;;;;;6.70;3.90;;;11.20;99.90;;;;;;5063655;28;20047;-68
2023/04/01 11:01:22;;;;;;;7.78;4.10;;;11.20;99.90;;;;;;5064402;28;20047;-70
2023/04/01 11:04:25;;;;;;;5.90;3.60;;;11.10;99.90;;;;;;5046854;28;20052;-67
2023/04/01 11:07:05;;;;;;;7.85;3.72;;;11.10;99.90;;;;;;5064721;28;20040;-67
2023/04/01 11:09:46;;;;;;;10.00;4.53;;;11.10;99.90;;;;;;5066668;28;20037;-68
2023/04/01 11:12:34;;;;;;;7.43;4.07;;;11.10;99.90;;;;;;5065877;28;20052;-68
2023/04/01 11:15:15;;;;;;;7.15;4.25;;;10.90;99.90;;;;;;5057935;28;20045;-67
2023/04/01 11:18:02;;;;;;;5.75;3.78;;;10.90;99.90;;;;;;5062698;28;20048;-69
2023/04/01 11:20:55;;;;;;;5.63;3.72;;;10.90;99.90;;;;;;5056527;28;20132;-67
2023/04/01 11:23:54;;;;;;;7.03;4.43;;;10.90;99.90;;;;;;5062684;28;20037;-68
2023/04/01 11:26:55;;;;;;;7.00;5.20;;;10.90;99.90;;;;;;5064088;28;20664;-68
2023/04/01 11:29:36;;;;;;;8.05;3.30;;;10.90;99.90;;;;;;5065361;28;20060;-68
2023/04/01 11:32:10;;;;;;;5.78;3.05;;;10.90;99.90;;;;;;5069131;28;20051;-67
2023/04/01 11:35:04;;;;;;;6.82;2.92;;;10.90;99.90;;;;;;5047545;28;20406;-68
2023/04/01 11:37:49;;;;;;;5.60;3.20;;;10.90;99.90;;;;;;5050561;28;20048;-67
2023/04/01 11:40:28;;;;;;;4.97;2.70;;;10.90;99.90;;;;;;5081702;28;21014;-68
2023/04/01 11:42:57;;;;;;;6.30;2.85;;;10.90;99.90;;;;;;5066243;28;20048;-69
2023/04/01 11:45:33;;;;;;;5.05;2.70;;;11.00;99.90;;;;;;5048428;28;20064;-69
2023/04/01 11:48:14;;;;;;;4.10;2.80;;;11.10;99.90;;;;;;5066279;28;20061;-68
2023/04/01 11:51:02;;;;;;;5.30;2.33;;;11.20;99.90;;;;;;5063736;28;20472;-68
2023/04/01 11:54:06;;;;;;;8.52;3.47;;;11.20;99.90;;;;;;5067858;28;20365;-68
2023/04/01 11:57:02;;;;;;;4.15;2.60;;;11.20;99.90;;;;;;5049609;28;20110;-70
2023/04/01 11:59:46;;;;;;;6.82;2.92;;;11.10;99.90;;;;;;5066082;28;20690;-67
2023/04/01 12:02:29;;;;;;;6.50;2.90;;;11.20;99.90;;;;;;5072556;28;20040;-67
2023/04/01 12:05:32;;;;;;;6.97;2.70;;;11.10;99.90;;;;;;5063478;28;20049;-67
2023/04/01 12:08:21;;;;;;;7.05;2.80;;;11.10;99.90;;;;;;5065862;28;20044;-67
2023/04/01 12:11:05;;;;;;;11.27;3.30;;;11.00;99.90;;;;;;5062693;28;20083;-67
2023/04/01 12:14:08;;;;;;;4.97;2.42;;;11.10;99.90;;;;;;5073621;28;20040;-67
2023/04/01 12:16:40;;;;;;;6.03;2.42;;;11.00;99.90;;;;;;5063670;28;20495;-67
2023/04/01 12:19:25;;;;;;;4.45;2.70;;;11.00;99.90;;;;;;5062168;28;20047;-69
2023/04/01 12:21:59;;;;;;;4.80;2.78;;;11.00;99.90;;;;;;5067339;28;20461;-67
2023/04/01 12:25:03;;;;;;;4.35;3.10;;;11.00;99.90;;;;;;5077660;28;20041;-66
2023/04/01 12:27:59;;;;;;;5.10;2.67;;;11.00;99.90;;;;;;5061999;28;20052;-68
2023/04/01 12:30:55;;;;;;;4.85;2.83;;;11.00;99.90;;;;;;5067203;28;20079;-67
2023/04/01 12:33:52;;;;;;;4.00;2.70;;;11.00;99.90;;;;;;5059732;28;20101;-68
2023/04/01 12:36:50;;;;;;;4.60;2.67;;;11.00;99.90;;;;;;5065008;28;20451;-68
2023/04/01 12:39:47;;;;;;;5.47;2.80;;;11.00;99.90;;;;;;5061939;28;20388;-68
2023/04/01 12:42:36;;;;;;;3.78;2.55;;;11.10;99.90;;;;;;5066547;28;20052;-68
2023/04/01 12:45:17;;;;;;;5.95;2.72;;;11.20;99.90;;;;;;5070017;28;20132;-68
2023/04/01 12:48:04;;;;;;;4.60;2.70;;;11.30;99.90;;;;;;5067646;28;20056;-67
2023/04/01 12:50:30;;;;;;;5.93;2.35;;;11.20;99.90;;;;;;5065141;28;20402;-67
2023/04/01 12:53:19;;;;;;;4.72;2.58;;;11.20;99.90;;;;;;5069718;28;20620;-67
2023/04/01 12:55:50;;;;;;;3.58;2.10;;;11.20;99.90;;;;;;5083410;28;20581;-67
2023/04/01 12:58:45;;;;;;;5.45;2.40;;;11.10;99.90;;;;;;5061193;28;20505;-69
2023/04/01 13:01:35;;;;;;;5.25;2.40;;;11.10;99.90;;;;;;4981256;28;20666;-69
2023/04/01 13:04:25;;;;;;;3.95;2.15;;;11.00;99.90;;;;;;5064217;28;20040;-72
2023/04/01 13:06:51;;;;;;;5.22;1.92;;;11.00;99.90;;;;;;5065697;28;20044;-68
2023/04/01 13:09:43;;;;;;;3.17;1.70;;;11.10;99.90;;;;;;5059329;28;20086;-70
2023/04/01 13:12:35;;;;;;;3.28;1.95;;;11.00;99.90;;;;;;5066820;28;20459;-68
2023/04/01 13:15:18;;;;;;;3.00;1.40;;;10.90;99.90;;;;;;5063589;28;20395;-69
2023/04/01 13:17:52;;;;;;;3.97;2.00;;;10.90;99.90;;;;;;5066322;28;20081;-69
2023/04/01 13:20:43;;;;;;;4.07;2.00;;;10.80;99.90;;;;;;5066947;28;20491;-68
2023/04/01 13:23:11;;;;;;;4.53;2.10;;;10.80;99.90;;;;;;5064456;28;20057;-67
2023/04/01 13:25:45;;;;;;;3.63;2.17;;;10.90;99.90;;;;;;5065985;28;20060;-69
2023/04/01 13:28:32;;;;;;;4.35;2.03;;;10.80;99.90;;;;;;5061932;28;20060;-69
2023/04/01 13:31:52;;;;;;;3.97;2.33;;;10.80;99.90;;;;;;5060085;28;20072;-71